TimeEDT,TemperatureF,Dew PointF,Humidity,Sea Level PressureIn,VisibilityMPH,Wind Direction,Wind SpeedMPH,Gust SpeedMPH,PrecipitationIn,Events,Conditions,WindDirDegrees,DateUTC
12:23 AM,71.6,66.2,83,29.78,10.0,WSW,8.1,-,0.00,,Overcast,240,2013-09-21 04:23:00
12:51 AM,70.0,66.0,87,29.76,6.0,SSW,9.2,-,0.01,Rain,Light Rain,210,2013-09-21 04:51:00
1:51 AM,70.0,66.0,87,29.75,7.0,SSW,6.9,-,0.02,Rain,Light Rain,200,2013-09-21 05:51:00
2:10 AM,69.8,66.2,88,29.75,10.0,SSW,8.1,-,0.03,Rain,Light Rain,200,2013-09-21 06:10:00
2:51 AM,70.0,66.0,87,29.73,10.0,SW,6.9,-,0.03,,Overcast,220,2013-09-21 06:51:00
3:15 AM,69.8,66.2,88,29.74,10.0,SW,4.6,-,N/A,,Overcast,220,2013-09-21 07:15:00
3:27 AM,69.8,66.2,88,29.73,10.0,WSW,3.5,-,N/A,,Overcast,250,2013-09-21 07:27:00
3:39 AM,69.8,66.2,88,29.73,10.0,WSW,4.6,-,N/A,,Overcast,240,2013-09-21 07:39:00
3:47 AM,69.8,66.2,88,29.73,10.0,SW,5.8,-,0.00,Rain,Light Rain,220,2013-09-21 07:47:00
3:51 AM,69.1,64.9,87,29.72,10.0,WSW,5.8,-,0.00,Rain,Light Rain,240,2013-09-21 07:51:00
4:51 AM,68.0,64.9,90,29.70,10.0,Calm,Calm,-,0.00,Rain,Light Rain,0,2013-09-21 08:51:00
5:24 AM,68.0,64.4,88,29.70,10.0,Calm,Calm,-,0.00,,Overcast,0,2013-09-21 09:24:00
5:49 AM,68.0,64.4,88,29.70,10.0,Calm,Calm,-,0.00,,Overcast,0,2013-09-21 09:49:00
5:51 AM,68.0,64.9,90,29.68,10.0,Calm,Calm,-,0.00,,Overcast,0,2013-09-21 09:51:00
6:51 AM,68.0,64.9,90,29.66,8.0,Calm,Calm,-,0.00,,Overcast,0,2013-09-21 10:51:00
7:05 AM,68.0,66.2,94,29.67,7.0,Calm,Calm,-,N/A,,Overcast,0,2013-09-21 11:05:00
7:33 AM,68.0,66.2,94,29.66,1.0,Calm,Calm,-,0.01,Rain,Rain,0,2013-09-21 11:33:00
7:41 AM,66.2,64.4,94,29.71,1.0,West,26.5,48.3,0.18,Rain,Heavy Rain,280,2013-09-21 11:41:00
7:46 AM,62.6,60.8,94,29.71,0.5,NW,13.8,48.3,0.54,Fog-Rain,Heavy Rain,310,2013-09-21 11:46:00
7:51 AM,62.1,60.1,93,29.70,1.0,WNW,11.5,28.8,0.87,Rain,Heavy Rain,300,2013-09-21 11:51:00
8:15 AM,62.6,60.8,94,29.70,1.0,Calm,Calm,-,0.27,Rain,Heavy Rain,0,2013-09-21 12:15:00
8:28 AM,62.6,60.8,94,29.70,3.0,Calm,Calm,-,0.32,Rain,Rain,0,2013-09-21 12:28:00
8:51 AM,62.1,60.1,93,29.69,4.0,SW,3.5,-,0.35,Rain,Light Rain,220,2013-09-21 12:51:00
9:51 AM,62.1,59.0,90,29.70,3.0,SE,5.8,-,0.12,Rain,Rain,140,2013-09-21 13:51:00
10:51 AM,62.1,60.1,93,29.70,5.0,South,8.1,-,0.10,Rain,Rain,190,2013-09-21 14:51:00
11:07 AM,62.6,59.0,88,29.72,2.0,SSW,6.9,-,0.05,Rain,Heavy Rain,210,2013-09-21 15:07:00
11:21 AM,62.6,59.0,88,29.71,5.0,SSE,6.9,-,0.08,Rain,Light Rain,150,2013-09-21 15:21:00
11:51 AM,62.1,59.0,90,29.70,5.0,SSE,5.8,-,0.11,Rain,Light Rain,150,2013-09-21 15:51:00
12:51 PM,62.1,59.0,90,29.68,4.0,ESE,9.2,-,0.13,Rain,Rain,120,2013-09-21 16:51:00
1:51 PM,62.1,59.0,90,29.65,5.0,SSE,10.4,-,0.10,Rain,Rain,150,2013-09-21 17:51:00
2:51 PM,62.1,57.9,86,29.65,10.0,South,6.9,-,0.09,Rain,Light Rain,180,2013-09-21 18:51:00
3:07 PM,62.6,59.0,88,29.66,2.5,SSW,11.5,-,0.03,Rain,Rain,200,2013-09-21 19:07:00
3:14 PM,62.6,59.0,88,29.66,7.0,South,8.1,-,0.03,Rain,Light Rain,190,2013-09-21 19:14:00
3:51 PM,62.1,59.0,90,29.66,10.0,SW,10.4,-,0.05,Rain,Light Rain,220,2013-09-21 19:51:00
4:02 PM,62.6,59.0,88,29.67,10.0,WSW,6.9,-,0.00,,Overcast,240,2013-09-21 20:02:00
4:51 PM,64.9,60.1,84,29.67,8.0,West,10.4,-,0.00,,Mostly Cloudy,270,2013-09-21 20:51:00
5:31 PM,64.4,57.2,77,29.69,10.0,NW,13.8,-,N/A,,Mostly Cloudy,320,2013-09-21 21:31:00
5:51 PM,63.0,57.0,81,29.69,10.0,NW,12.7,20.7,N/A,,Mostly Cloudy,320,2013-09-21 21:51:00
6:51 PM,62.1,54.0,75,29.72,10.0,NW,11.5,-,N/A,,Overcast,310,2013-09-21 22:51:00
7:38 PM,60.8,51.8,72,29.74,10.0,NW,9.2,-,N/A,,Overcast,320,2013-09-21 23:38:00
7:51 PM,61.0,53.1,75,29.75,10.0,NNW,4.6,-,N/A,,Overcast,330,2013-09-21 23:51:00
8:51 PM,61.0,50.0,67,29.77,10.0,NNW,8.1,-,N/A,,Mostly Cloudy,330,2013-09-22 00:51:00
9:51 PM,59.0,50.0,72,29.78,10.0,North,4.6,-,N/A,,Scattered Clouds,350,2013-09-22 01:51:00
10:51 PM,60.1,48.9,67,29.79,10.0,North,8.1,-,N/A,,Overcast,360,2013-09-22 02:51:00
11:42 PM,59.0,48.2,67,29.80,10.0,North,9.2,-,0.00,,Overcast,350,2013-09-22 03:42:00
11:51 PM,59.0,48.0,67,29.80,10.0,North,10.4,-,0.00,,Overcast,360,2013-09-22 03:51:00